< < Back
Terminal Aerodrome Forecast


Current Version              Previous Versions:   1  2  3  4  5  6  7  8  9  

Terminal Aerodrome Forecast

650
FTUS42 KTAE 032100 AAA
TAFVLD
TAF AMD
KVLD 032100Z 0321/0418 19004KT P6SM VCTS SCT040CB
      TEMPO 0321/0324 VRB15G20KT 2SM +TSRA OVC020CB
     FM040600 VRB03KT P6SM OVC007
     FM041400 36006KT P6SM SCT040=



Latest METAR

994
SAUS70 KWBC 032200 RRG
MTRVLD
METAR KVLD 032153Z VRB04KT 5SM -TSRA BR SCT060 BKN090 OVC110 21/20 A2985
RMK AO2 LTG DSNT ALQDS SLP116 P0061 T02110200


USA.gov is the U.S. government's official web portal to all federal, state and local government web resources and services.